sensor_id;sensor_type;location;lat;lon;timestamp;temperature;humidity
44431;DHT22;30135;47.866;-4.222;2023-10-31T00:01:52;14.20;99.90
44431;DHT22;30135;47.866;-4.222;2023-10-31T00:04:19;14.20;99.90
44431;DHT22;30135;47.866;-4.222;2023-10-31T00:06:45;14.20;99.90
44431;DHT22;30135;47.866;-4.222;2023-10-31T00:09:11;14.20;99.90
44431;DHT22;30135;47.866;-4.222;2023-10-31T00:11:37;14.20;99.90
44431;DHT22;30135;47.866;-4.222;2023-10-31T00:14:03;14.20;99.90
44431;DHT22;30135;47.866;-4.222;2023-10-31T00:16:30;14.20;99.90
44431;DHT22;30135;47.866;-4.222;2023-10-31T00:18:56;14.20;99.90
44431;DHT22;30135;47.866;-4.222;2023-10-31T00:21:22;14.20;99.90
44431;DHT22;30135;47.866;-4.222;2023-10-31T00:23:49;14.30;99.90
44431;DHT22;30135;47.866;-4.222;2023-10-31T00:26:15;14.30;99.90
44431;DHT22;30135;47.866;-4.222;2023-10-31T00:28:42;14.30;99.90
44431;DHT22;30135;47.866;-4.222;2023-10-31T00:31:08;14.30;99.90
44431;DHT22;30135;47.866;-4.222;2023-10-31T00:33:37;14.30;99.90
44431;DHT22;30135;47.866;-4.222;2023-10-31T00:36:03;14.20;99.90
44431;DHT22;30135;47.866;-4.222;2023-10-31T00:38:30;14.20;99.90
44431;DHT22;30135;47.866;-4.222;2023-10-31T00:40:56;14.20;99.90
44431;DHT22;30135;47.866;-4.222;2023-10-31T00:43:22;14.20;99.90
44431;DHT22;30135;47.866;-4.222;2023-10-31T00:45:48;14.20;99.90
44431;DHT22;30135;47.866;-4.222;2023-10-31T00:48:14;14.20;99.90
44431;DHT22;30135;47.866;-4.222;2023-10-31T00:50:40;14.20;99.90
44431;DHT22;30135;47.866;-4.222;2023-10-31T00:53:07;14.20;99.90
44431;DHT22;30135;47.866;-4.222;2023-10-31T00:55:41;14.20;99.90
44431;DHT22;30135;47.866;-4.222;2023-10-31T00:58:07;14.20;99.90
44431;DHT22;30135;47.866;-4.222;2023-10-31T01:00:33;14.20;99.90
44431;DHT22;30135;47.866;-4.222;2023-10-31T01:02:59;14.30;99.90
44431;DHT22;30135;47.866;-4.222;2023-10-31T01:05:26;14.30;99.90
44431;DHT22;30135;47.866;-4.222;2023-10-31T01:07:55;14.30;99.90
44431;DHT22;30135;47.866;-4.222;2023-10-31T01:10:21;14.30;99.90
44431;DHT22;30135;47.866;-4.222;2023-10-31T01:12:48;14.30;99.90
44431;DHT22;30135;47.866;-4.222;2023-10-31T01:15:14;14.30;99.90
44431;DHT22;30135;47.866;-4.222;2023-10-31T01:17:40;14.30;99.90
44431;DHT22;30135;47.866;-4.222;2023-10-31T01:20:06;14.30;99.90
44431;DHT22;30135;47.866;-4.222;2023-10-31T01:22:33;14.30;99.90
44431;DHT22;30135;47.866;-4.222;2023-10-31T01:24:58;14.30;99.90
44431;DHT22;30135;47.866;-4.222;2023-10-31T01:27:24;14.30;99.90
44431;DHT22;30135;47.866;-4.222;2023-10-31T01:29:50;14.30;99.90
44431;DHT22;30135;47.866;-4.222;2023-10-31T01:32:16;14.40;99.90
44431;DHT22;30135;47.866;-4.222;2023-10-31T01:34:43;14.30;99.90
44431;DHT22;30135;47.866;-4.222;2023-10-31T01:37:09;14.40;99.90
44431;DHT22;30135;47.866;-4.222;2023-10-31T01:39:38;14.40;99.90
44431;DHT22;30135;47.866;-4.222;2023-10-31T01:42:05;14.40;99.90
44431;DHT22;30135;47.866;-4.222;2023-10-31T01:44:31;14.40;99.90
44431;DHT22;30135;47.866;-4.222;2023-10-31T01:47:04;14.40;99.90
44431;DHT22;30135;47.866;-4.222;2023-10-31T01:49:30;14.40;99.90
44431;DHT22;30135;47.866;-4.222;2023-10-31T01:52:00;14.40;99.90
44431;DHT22;30135;47.866;-4.222;2023-10-31T01:54:26;14.40;99.90
44431;DHT22;30135;47.866;-4.222;2023-10-31T01:56:57;14.40;99.90
44431;DHT22;30135;47.866;-4.222;2023-10-31T01:59:25;14.40;99.90
44431;DHT22;30135;47.866;-4.222;2023-10-31T02:01:51;14.40;99.90
44431;DHT22;30135;47.866;-4.222;2023-10-31T02:04:18;14.40;99.90
44431;DHT22;30135;47.866;-4.222;2023-10-31T02:06:44;14.40;99.90
44431;DHT22;30135;47.866;-4.222;2023-10-31T02:09:10;14.40;99.90
44431;DHT22;30135;47.866;-4.222;2023-10-31T02:11:37;14.40;99.90
44431;DHT22;30135;47.866;-4.222;2023-10-31T02:14:03;14.40;99.90
44431;DHT22;30135;47.866;-4.222;2023-10-31T02:16:29;14.40;99.90
44431;DHT22;30135;47.866;-4.222;2023-10-31T02:18:55;14.40;99.90
44431;DHT22;30135;47.866;-4.222;2023-10-31T02:21:21;14.40;99.90
44431;DHT22;30135;47.866;-4.222;2023-10-31T02:24:00;14.40;99.90
44431;DHT22;30135;47.866;-4.222;2023-10-31T02:26:34;14.50;99.90
44431;DHT22;30135;47.866;-4.222;2023-10-31T02:29:05;14.50;99.90
44431;DHT22;30135;47.866;-4.222;2023-10-31T02:31:32;14.50;99.90
44431;DHT22;30135;47.866;-4.222;2023-10-31T02:33:58;14.50;99.90
44431;DHT22;30135;47.866;-4.222;2023-10-31T02:36:24;14.50;99.90
44431;DHT22;30135;47.866;-4.222;2023-10-31T02:38:50;14.50;99.90
44431;DHT22;30135;47.866;-4.222;2023-10-31T02:41:16;14.50;99.90
44431;DHT22;30135;47.866;-4.222;2023-10-31T02:43:42;14.50;99.90
44431;DHT22;30135;47.866;-4.222;2023-10-31T02:46:08;14.50;99.90
44431;DHT22;30135;47.866;-4.222;2023-10-31T02:48:37;14.50;99.90
44431;DHT22;30135;47.866;-4.222;2023-10-31T02:51:05;14.50;99.90
44431;DHT22;30135;47.866;-4.222;2023-10-31T02:53:33;14.50;99.90
44431;DHT22;30135;47.866;-4.222;2023-10-31T02:55:59;14.50;99.90
44431;DHT22;30135;47.866;-4.222;2023-10-31T02:58:25;14.50;99.90
44431;DHT22;30135;47.866;-4.222;2023-10-31T03:00:51;14.50;99.90
44431;DHT22;30135;47.866;-4.222;2023-10-31T03:03:17;14.50;99.90
44431;DHT22;30135;47.866;-4.222;2023-10-31T03:05:43;14.50;99.90
44431;DHT22;30135;47.866;-4.222;2023-10-31T03:08:09;14.50;99.90
44431;DHT22;30135;47.866;-4.222;2023-10-31T03:10:38;14.50;99.90
44431;DHT22;30135;47.866;-4.222;2023-10-31T03:13:05;14.50;99.90
44431;DHT22;30135;47.866;-4.222;2023-10-31T03:15:31;14.50;99.90
44431;DHT22;30135;47.866;-4.222;2023-10-31T03:17:57;14.50;99.90
44431;DHT22;30135;47.866;-4.222;2023-10-31T03:20:23;14.50;99.90
44431;DHT22;30135;47.866;-4.222;2023-10-31T03:22:48;14.50;99.90
44431;DHT22;30135;47.866;-4.222;2023-10-31T03:25:14;14.50;99.90
44431;DHT22;30135;47.866;-4.222;2023-10-31T03:27:40;14.50;99.90
44431;DHT22;30135;47.866;-4.222;2023-10-31T03:30:07;14.50;99.90
44431;DHT22;30135;47.866;-4.222;2023-10-31T03:32:36;14.50;99.90
44431;DHT22;30135;47.866;-4.222;2023-10-31T03:35:02;14.50;99.90
44431;DHT22;30135;47.866;-4.222;2023-10-31T03:37:28;14.50;99.90
44431;DHT22;30135;47.866;-4.222;2023-10-31T03:39:54;14.60;99.90
44431;DHT22;30135;47.866;-4.222;2023-10-31T03:42:20;14.50;99.90
44431;DHT22;30135;47.866;-4.222;2023-10-31T03:44:46;14.50;99.90
44431;DHT22;30135;47.866;-4.222;2023-10-31T03:47:12;14.50;99.90
44431;DHT22;30135;47.866;-4.222;2023-10-31T03:49:40;14.60;99.90
44431;DHT22;30135;47.866;-4.222;2023-10-31T03:52:06;14.50;99.90
44431;DHT22;30135;47.866;-4.222;2023-10-31T03:54:32;14.60;99.90
44431;DHT22;30135;47.866;-4.222;2023-10-31T03:56:58;14.60;99.90
44431;DHT22;30135;47.866;-4.222;2023-10-31T03:59:24;14.60;99.90
44431;DHT22;30135;47.866;-4.222;2023-10-31T04:01:50;14.60;99.90
44431;DHT22;30135;47.866;-4.222;2023-10-31T04:04:16;14.60;99.90
44431;DHT22;30135;47.866;-4.222;2023-10-31T04:06:42;14.60;99.90
44431;DHT22;30135;47.866;-4.222;2023-10-31T04:09:09;14.60;99.90
44431;DHT22;30135;47.866;-4.222;2023-10-31T04:11:35;14.60;99.90
44431;DHT22;30135;47.866;-4.222;2023-10-31T04:14:01;14.60;99.90
44431;DHT22;30135;47.866;-4.222;2023-10-31T04:16:28;14.60;99.90
44431;DHT22;30135;47.866;-4.222;2023-10-31T04:18:54;14.60;99.90
44431;DHT22;30135;47.866;-4.222;2023-10-31T04:21:20;14.60;99.90
44431;DHT22;30135;47.866;-4.222;2023-10-31T04:23:46;14.60;99.90
44431;DHT22;30135;47.866;-4.222;2023-10-31T04:26:12;14.60;99.90
44431;DHT22;30135;47.866;-4.222;2023-10-31T04:28:39;14.60;99.90
44431;DHT22;30135;47.866;-4.222;2023-10-31T04:31:05;14.60;99.90
44431;DHT22;30135;47.866;-4.222;2023-10-31T04:33:31;14.60;99.90
44431;DHT22;30135;47.866;-4.222;2023-10-31T04:35:57;14.60;99.90
44431;DHT22;30135;47.866;-4.222;2023-10-31T04:38:22;14.60;99.90
44431;DHT22;30135;47.866;-4.222;2023-10-31T04:40:48;14.60;99.90
44431;DHT22;30135;47.866;-4.222;2023-10-31T04:43:14;14.60;99.90
44431;DHT22;30135;47.866;-4.222;2023-10-31T04:45:40;14.60;99.90
44431;DHT22;30135;47.866;-4.222;2023-10-31T04:48:07;14.60;99.90
44431;DHT22;30135;47.866;-4.222;2023-10-31T04:50:33;14.60;99.90
44431;DHT22;30135;47.866;-4.222;2023-10-31T04:52:59;14.60;99.90
44431;DHT22;30135;47.866;-4.222;2023-10-31T04:55:25;14.60;99.90
44431;DHT22;30135;47.866;-4.222;2023-10-31T04:57:51;14.60;99.90
44431;DHT22;30135;47.866;-4.222;2023-10-31T05:00:17;14.60;99.90
44431;DHT22;30135;47.866;-4.222;2023-10-31T05:02:43;14.60;99.90
44431;DHT22;30135;47.866;-4.222;2023-10-31T05:05:09;14.60;99.90
44431;DHT22;30135;47.866;-4.222;2023-10-31T05:07:35;14.60;99.90
44431;DHT22;30135;47.866;-4.222;2023-10-31T05:10:01;14.60;99.90
44431;DHT22;30135;47.866;-4.222;2023-10-31T05:12:27;14.60;99.90
44431;DHT22;30135;47.866;-4.222;2023-10-31T05:14:53;14.60;99.90
44431;DHT22;30135;47.866;-4.222;2023-10-31T05:17:19;14.60;99.90
44431;DHT22;30135;47.866;-4.222;2023-10-31T05:19:45;14.60;99.90
44431;DHT22;30135;47.866;-4.222;2023-10-31T05:22:11;14.60;99.90
44431;DHT22;30135;47.866;-4.222;2023-10-31T05:24:37;14.60;99.90
44431;DHT22;30135;47.866;-4.222;2023-10-31T05:27:03;14.70;99.90
44431;DHT22;30135;47.866;-4.222;2023-10-31T05:29:30;14.70;99.90
44431;DHT22;30135;47.866;-4.222;2023-10-31T05:31:56;14.70;99.90
44431;DHT22;30135;47.866;-4.222;2023-10-31T05:34:22;14.70;99.90
44431;DHT22;30135;47.866;-4.222;2023-10-31T05:36:48;14.70;99.90
44431;DHT22;30135;47.866;-4.222;2023-10-31T05:39:14;14.70;99.90
44431;DHT22;30135;47.866;-4.222;2023-10-31T05:41:41;14.70;99.90
44431;DHT22;30135;47.866;-4.222;2023-10-31T05:44:07;14.70;99.90
44431;DHT22;30135;47.866;-4.222;2023-10-31T05:46:38;14.70;99.90
44431;DHT22;30135;47.866;-4.222;2023-10-31T05:49:07;14.70;99.90
44431;DHT22;30135;47.866;-4.222;2023-10-31T05:51:34;14.70;99.90
44431;DHT22;30135;47.866;-4.222;2023-10-31T05:54:01;14.70;99.90
44431;DHT22;30135;47.866;-4.222;2023-10-31T05:56:27;14.70;99.90
44431;DHT22;30135;47.866;-4.222;2023-10-31T05:58:53;14.70;99.90
44431;DHT22;30135;47.866;-4.222;2023-10-31T06:01:19;14.70;99.90
44431;DHT22;30135;47.866;-4.222;2023-10-31T06:03:45;14.70;99.90
44431;DHT22;30135;47.866;-4.222;2023-10-31T06:06:12;14.70;99.90
44431;DHT22;30135;47.866;-4.222;2023-10-31T06:08:39;14.70;99.90
44431;DHT22;30135;47.866;-4.222;2023-10-31T06:11:05;14.80;99.90
44431;DHT22;30135;47.866;-4.222;2023-10-31T06:13:32;14.80;99.90
44431;DHT22;30135;47.866;-4.222;2023-10-31T06:16:00;14.80;99.90
44431;DHT22;30135;47.866;-4.222;2023-10-31T06:18:27;14.80;99.90
44431;DHT22;30135;47.866;-4.222;2023-10-31T06:20:53;14.80;99.90
44431;DHT22;30135;47.866;-4.222;2023-10-31T06:23:19;14.80;99.90
44431;DHT22;30135;47.866;-4.222;2023-10-31T06:25:45;14.80;99.90
44431;DHT22;30135;47.866;-4.222;2023-10-31T06:28:12;14.80;99.90
44431;DHT22;30135;47.866;-4.222;2023-10-31T06:30:38;14.80;99.90
44431;DHT22;30135;47.866;-4.222;2023-10-31T06:33:04;14.80;99.90
44431;DHT22;30135;47.866;-4.222;2023-10-31T06:35:30;14.80;99.90
44431;DHT22;30135;47.866;-4.222;2023-10-31T06:37:56;14.80;99.90
44431;DHT22;30135;47.866;-4.222;2023-10-31T06:40:24;14.80;99.90
44431;DHT22;30135;47.866;-4.222;2023-10-31T06:42:50;14.80;99.90
44431;DHT22;30135;47.866;-4.222;2023-10-31T06:45:16;14.80;99.90
44431;DHT22;30135;47.866;-4.222;2023-10-31T06:47:42;14.80;99.90
44431;DHT22;30135;47.866;-4.222;2023-10-31T06:50:08;14.80;99.90
44431;DHT22;30135;47.866;-4.222;2023-10-31T06:52:35;14.80;99.90
44431;DHT22;30135;47.866;-4.222;2023-10-31T06:55:01;14.80;99.90
44431;DHT22;30135;47.866;-4.222;2023-10-31T06:57:27;14.80;99.90
44431;DHT22;30135;47.866;-4.222;2023-10-31T06:59:53;14.80;99.90
44431;DHT22;30135;47.866;-4.222;2023-10-31T07:02:19;14.80;99.90
44431;DHT22;30135;47.866;-4.222;2023-10-31T07:04:45;14.80;99.90
44431;DHT22;30135;47.866;-4.222;2023-10-31T07:07:11;14.80;99.90
44431;DHT22;30135;47.866;-4.222;2023-10-31T07:09:36;14.80;99.90
44431;DHT22;30135;47.866;-4.222;2023-10-31T07:12:02;14.80;99.90
44431;DHT22;30135;47.866;-4.222;2023-10-31T07:14:29;14.80;99.90
44431;DHT22;30135;47.866;-4.222;2023-10-31T07:16:56;14.80;99.90
44431;DHT22;30135;47.866;-4.222;2023-10-31T07:19:22;14.80;99.90
44431;DHT22;30135;47.866;-4.222;2023-10-31T07:21:48;14.80;99.90
44431;DHT22;30135;47.866;-4.222;2023-10-31T07:24:14;14.80;99.90
44431;DHT22;30135;47.866;-4.222;2023-10-31T07:26:40;14.80;99.90
44431;DHT22;30135;47.866;-4.222;2023-10-31T07:29:06;14.90;99.90
44431;DHT22;30135;47.866;-4.222;2023-10-31T07:31:32;14.90;99.90
44431;DHT22;30135;47.866;-4.222;2023-10-31T07:33:58;14.80;99.90
44431;DHT22;30135;47.866;-4.222;2023-10-31T07:36:24;14.90;99.90
44431;DHT22;30135;47.866;-4.222;2023-10-31T07:38:50;14.90;99.90
44431;DHT22;30135;47.866;-4.222;2023-10-31T07:41:16;14.90;99.90
44431;DHT22;30135;47.866;-4.222;2023-10-31T07:43:42;14.90;99.90
44431;DHT22;30135;47.866;-4.222;2023-10-31T07:46:08;14.90;99.90
44431;DHT22;30135;47.866;-4.222;2023-10-31T07:48:34;14.90;99.90
44431;DHT22;30135;47.866;-4.222;2023-10-31T07:51:00;14.90;99.90
44431;DHT22;30135;47.866;-4.222;2023-10-31T07:53:26;14.90;99.90
44431;DHT22;30135;47.866;-4.222;2023-10-31T07:55:52;14.90;99.90
44431;DHT22;30135;47.866;-4.222;2023-10-31T07:58:18;14.90;99.90
44431;DHT22;30135;47.866;-4.222;2023-10-31T08:00:44;14.90;99.90
44431;DHT22;30135;47.866;-4.222;2023-10-31T08:03:10;14.90;99.90
44431;DHT22;30135;47.866;-4.222;2023-10-31T08:05:36;14.90;99.90
44431;DHT22;30135;47.866;-4.222;2023-10-31T08:08:05;14.90;99.90
44431;DHT22;30135;47.866;-4.222;2023-10-31T08:10:31;14.90;99.90
44431;DHT22;30135;47.866;-4.222;2023-10-31T08:12:59;14.90;99.90
44431;DHT22;30135;47.866;-4.222;2023-10-31T08:15:25;15.00;99.90
44431;DHT22;30135;47.866;-4.222;2023-10-31T08:17:51;15.00;99.90
44431;DHT22;30135;47.866;-4.222;2023-10-31T08:20:17;15.00;99.90
44431;DHT22;30135;47.866;-4.222;2023-10-31T08:22:43;15.00;99.90
44431;DHT22;30135;47.866;-4.222;2023-10-31T08:25:09;15.00;99.90
44431;DHT22;30135;47.866;-4.222;2023-10-31T08:27:35;15.00;99.90
44431;DHT22;30135;47.866;-4.222;2023-10-31T08:30:01;15.00;99.90
44431;DHT22;30135;47.866;-4.222;2023-10-31T08:32:27;15.00;99.90
44431;DHT22;30135;47.866;-4.222;2023-10-31T08:34:54;15.10;99.90
44431;DHT22;30135;47.866;-4.222;2023-10-31T08:37:21;15.00;99.90
44431;DHT22;30135;47.866;-4.222;2023-10-31T08:39:47;15.10;99.90
44431;DHT22;30135;47.866;-4.222;2023-10-31T08:42:13;15.10;99.90
44431;DHT22;30135;47.866;-4.222;2023-10-31T08:44:40;15.10;99.90
44431;DHT22;30135;47.866;-4.222;2023-10-31T08:47:06;15.10;99.90
44431;DHT22;30135;47.866;-4.222;2023-10-31T08:49:32;15.10;99.90
44431;DHT22;30135;47.866;-4.222;2023-10-31T08:51:58;15.10;99.90
44431;DHT22;30135;47.866;-4.222;2023-10-31T08:54:27;15.10;99.90
44431;DHT22;30135;47.866;-4.222;2023-10-31T08:56:53;15.10;99.90
44431;DHT22;30135;47.866;-4.222;2023-10-31T08:59:19;15.20;99.90
44431;DHT22;30135;47.866;-4.222;2023-10-31T09:01:45;15.20;99.90
44431;DHT22;30135;47.866;-4.222;2023-10-31T09:04:11;15.20;99.90
44431;DHT22;30135;47.866;-4.222;2023-10-31T09:06:37;15.20;99.90
44431;DHT22;30135;47.866;-4.222;2023-10-31T09:09:03;15.20;99.90
44431;DHT22;30135;47.866;-4.222;2023-10-31T09:11:29;15.20;99.90
44431;DHT22;30135;47.866;-4.222;2023-10-31T09:13:55;15.20;99.90
44431;DHT22;30135;47.866;-4.222;2023-10-31T09:16:22;15.20;99.90
44431;DHT22;30135;47.866;-4.222;2023-10-31T09:18:48;15.30;99.90
44431;DHT22;30135;47.866;-4.222;2023-10-31T09:21:14;15.30;99.90
44431;DHT22;30135;47.866;-4.222;2023-10-31T09:23:40;15.30;99.90
44431;DHT22;30135;47.866;-4.222;2023-10-31T09:26:06;15.30;99.90
44431;DHT22;30135;47.866;-4.222;2023-10-31T09:28:35;15.30;99.90
44431;DHT22;30135;47.866;-4.222;2023-10-31T09:31:02;15.40;99.90
44431;DHT22;30135;47.866;-4.222;2023-10-31T09:33:28;15.40;99.90
44431;DHT22;30135;47.866;-4.222;2023-10-31T09:35:54;15.40;99.90
44431;DHT22;30135;47.866;-4.222;2023-10-31T09:38:19;15.40;99.90
44431;DHT22;30135;47.866;-4.222;2023-10-31T09:40:45;15.40;99.90
44431;DHT22;30135;47.866;-4.222;2023-10-31T09:43:11;15.40;99.90
44431;DHT22;30135;47.866;-4.222;2023-10-31T09:45:37;15.50;99.90
44431;DHT22;30135;47.866;-4.222;2023-10-31T09:48:03;15.50;99.90
44431;DHT22;30135;47.866;-4.222;2023-10-31T09:50:30;15.50;99.90
44431;DHT22;30135;47.866;-4.222;2023-10-31T09:52:56;15.50;99.90
44431;DHT22;30135;47.866;-4.222;2023-10-31T09:55:24;15.60;99.90
44431;DHT22;30135;47.866;-4.222;2023-10-31T09:57:50;15.60;99.90
44431;DHT22;30135;47.866;-4.222;2023-10-31T10:00:17;15.60;99.90
44431;DHT22;30135;47.866;-4.222;2023-10-31T10:02:44;15.60;99.90
44431;DHT22;30135;47.866;-4.222;2023-10-31T10:05:09;15.60;99.90
44431;DHT22;30135;47.866;-4.222;2023-10-31T10:07:41;15.60;99.90
44431;DHT22;30135;47.866;-4.222;2023-10-31T10:10:12;15.70;99.90
44431;DHT22;30135;47.866;-4.222;2023-10-31T10:12:42;15.70;99.90
44431;DHT22;30135;47.866;-4.222;2023-10-31T10:15:10;15.80;99.90
44431;DHT22;30135;47.866;-4.222;2023-10-31T10:17:37;15.80;99.90
44431;DHT22;30135;47.866;-4.222;2023-10-31T10:20:09;15.80;99.90
44431;DHT22;30135;47.866;-4.222;2023-10-31T10:22:39;15.80;99.90
44431;DHT22;30135;47.866;-4.222;2023-10-31T10:25:08;15.80;99.90
44431;DHT22;30135;47.866;-4.222;2023-10-31T10:27:34;15.80;99.90
44431;DHT22;30135;47.866;-4.222;2023-10-31T10:30:02;15.80;99.90
44431;DHT22;30135;47.866;-4.222;2023-10-31T10:32:30;15.80;99.90
44431;DHT22;30135;47.866;-4.222;2023-10-31T10:34:56;15.80;99.90
44431;DHT22;30135;47.866;-4.222;2023-10-31T10:37:23;15.80;99.90
44431;DHT22;30135;47.866;-4.222;2023-10-31T10:39:52;15.80;99.90
44431;DHT22;30135;47.866;-4.222;2023-10-31T10:42:33;15.80;99.90
44431;DHT22;30135;47.866;-4.222;2023-10-31T10:45:13;15.80;99.90
44431;DHT22;30135;47.866;-4.222;2023-10-31T10:47:48;15.80;99.90
44431;DHT22;30135;47.866;-4.222;2023-10-31T10:50:19;15.90;99.90
44431;DHT22;30135;47.866;-4.222;2023-10-31T10:53:00;15.90;99.90
44431;DHT22;30135;47.866;-4.222;2023-10-31T10:55:45;15.90;99.90
44431;DHT22;30135;47.866;-4.222;2023-10-31T11:01:20;15.90;99.90
44431;DHT22;30135;47.866;-4.222;2023-10-31T11:03:47;15.90;99.90
44431;DHT22;30135;47.866;-4.222;2023-10-31T11:06:14;15.90;99.90
44431;DHT22;30135;47.866;-4.222;2023-10-31T11:08:40;15.90;99.90
44431;DHT22;30135;47.866;-4.222;2023-10-31T11:11:07;15.90;99.90
44431;DHT22;30135;47.866;-4.222;2023-10-31T11:13:33;15.90;99.90
44431;DHT22;30135;47.866;-4.222;2023-10-31T11:16:07;15.90;99.90
44431;DHT22;30135;47.866;-4.222;2023-10-31T11:18:37;15.90;99.90
44431;DHT22;30135;47.866;-4.222;2023-10-31T11:21:04;15.90;99.90
44431;DHT22;30135;47.866;-4.222;2023-10-31T11:23:30;15.90;99.90
44431;DHT22;30135;47.866;-4.222;2023-10-31T11:25:56;15.90;99.90
44431;DHT22;30135;47.866;-4.222;2023-10-31T11:28:22;15.90;99.90
44431;DHT22;30135;47.866;-4.222;2023-10-31T11:30:50;15.90;99.90
44431;DHT22;30135;47.866;-4.222;2023-10-31T11:33:21;16.00;99.90
44431;DHT22;30135;47.866;-4.222;2023-10-31T11:35:51;16.00;99.90
44431;DHT22;30135;47.866;-4.222;2023-10-31T11:38:31;16.00;99.90
44431;DHT22;30135;47.866;-4.222;2023-10-31T11:41:01;16.00;99.90
44431;DHT22;30135;47.866;-4.222;2023-10-31T11:46:17;16.00;99.90
44431;DHT22;30135;47.866;-4.222;2023-10-31T11:48:52;16.00;99.90
44431;DHT22;30135;47.866;-4.222;2023-10-31T11:51:19;16.00;99.90
44431;DHT22;30135;47.866;-4.222;2023-10-31T11:53:45;16.10;99.90
44431;DHT22;30135;47.866;-4.222;2023-10-31T11:56:11;16.10;99.90
44431;DHT22;30135;47.866;-4.222;2023-10-31T11:58:38;16.10;99.90
44431;DHT22;30135;47.866;-4.222;2023-10-31T12:01:06;16.10;99.90
44431;DHT22;30135;47.866;-4.222;2023-10-31T12:03:43;16.10;99.90
44431;DHT22;30135;47.866;-4.222;2023-10-31T12:06:14;16.10;99.90
44431;DHT22;30135;47.866;-4.222;2023-10-31T12:08:42;16.10;99.90
44431;DHT22;30135;47.866;-4.222;2023-10-31T12:13:38;16.10;99.90
44431;DHT22;30135;47.866;-4.222;2023-10-31T12:16:19;16.10;99.90
44431;DHT22;30135;47.866;-4.222;2023-10-31T12:18:57;16.10;99.90
44431;DHT22;30135;47.866;-4.222;2023-10-31T12:21:43;16.10;99.90
44431;DHT22;30135;47.866;-4.222;2023-10-31T12:24:14;16.10;99.90
44431;DHT22;30135;47.866;-4.222;2023-10-31T12:26:42;16.10;99.90
44431;DHT22;30135;47.866;-4.222;2023-10-31T12:29:18;16.10;99.90
44431;DHT22;30135;47.866;-4.222;2023-10-31T12:31:50;16.10;99.90
44431;DHT22;30135;47.866;-4.222;2023-10-31T12:34:22;16.10;99.90
44431;DHT22;30135;47.866;-4.222;2023-10-31T12:36:51;16.00;99.90
44431;DHT22;30135;47.866;-4.222;2023-10-31T12:39:23;16.00;99.90
44431;DHT22;30135;47.866;-4.222;2023-10-31T12:41:51;15.90;99.90
44431;DHT22;30135;47.866;-4.222;2023-10-31T12:44:23;15.80;99.90
44431;DHT22;30135;47.866;-4.222;2023-10-31T12:46:52;15.80;99.90
44431;DHT22;30135;47.866;-4.222;2023-10-31T12:49:19;15.80;99.90
44431;DHT22;30135;47.866;-4.222;2023-10-31T12:52:15;15.70;99.90
44431;DHT22;30135;47.866;-4.222;2023-10-31T12:54:41;15.70;99.90
44431;DHT22;30135;47.866;-4.222;2023-10-31T12:57:08;15.70;99.90
44431;DHT22;30135;47.866;-4.222;2023-10-31T12:59:37;15.70;99.90
44431;DHT22;30135;47.866;-4.222;2023-10-31T13:02:04;15.60;99.90
44431;DHT22;30135;47.866;-4.222;2023-10-31T13:04:32;15.60;99.90
44431;DHT22;30135;47.866;-4.222;2023-10-31T13:09:31;15.60;99.90
44431;DHT22;30135;47.866;-4.222;2023-10-31T13:12:02;15.60;99.90
44431;DHT22;30135;47.866;-4.222;2023-10-31T13:14:29;15.60;99.90
44431;DHT22;30135;47.866;-4.222;2023-10-31T13:16:55;15.70;99.90
44431;DHT22;30135;47.866;-4.222;2023-10-31T13:19:21;15.70;99.90
44431;DHT22;30135;47.866;-4.222;2023-10-31T13:21:48;15.70;99.90
44431;DHT22;30135;47.866;-4.222;2023-10-31T13:24:14;15.70;99.90
44431;DHT22;30135;47.866;-4.222;2023-10-31T13:26:41;15.70;99.90
44431;DHT22;30135;47.866;-4.222;2023-10-31T13:29:07;15.70;99.90
44431;DHT22;30135;47.866;-4.222;2023-10-31T13:31:33;15.70;99.90
44431;DHT22;30135;47.866;-4.222;2023-10-31T13:33:59;15.70;99.90
44431;DHT22;30135;47.866;-4.222;2023-10-31T13:36:25;15.70;99.90
44431;DHT22;30135;47.866;-4.222;2023-10-31T13:38:51;15.70;99.90
44431;DHT22;30135;47.866;-4.222;2023-10-31T13:41:17;15.60;99.90
44431;DHT22;30135;47.866;-4.222;2023-10-31T13:43:43;15.60;99.90
44431;DHT22;30135;47.866;-4.222;2023-10-31T13:46:10;15.60;99.90
44431;DHT22;30135;47.866;-4.222;2023-10-31T13:48:36;15.60;99.90
44431;DHT22;30135;47.866;-4.222;2023-10-31T13:51:02;15.60;99.90
44431;DHT22;30135;47.866;-4.222;2023-10-31T13:53:28;15.60;99.90
44431;DHT22;30135;47.866;-4.222;2023-10-31T13:55:54;15.60;99.90
44431;DHT22;30135;47.866;-4.222;2023-10-31T13:58:20;15.60;99.90
44431;DHT22;30135;47.866;-4.222;2023-10-31T14:00:46;15.60;99.90
44431;DHT22;30135;47.866;-4.222;2023-10-31T14:03:12;15.60;99.90
44431;DHT22;30135;47.866;-4.222;2023-10-31T14:05:38;15.60;99.90
44431;DHT22;30135;47.866;-4.222;2023-10-31T14:08:04;15.60;99.90
44431;DHT22;30135;47.866;-4.222;2023-10-31T14:10:34;15.70;99.90
44431;DHT22;30135;47.866;-4.222;2023-10-31T14:13:00;15.70;99.90
44431;DHT22;30135;47.866;-4.222;2023-10-31T14:15:26;15.70;99.90
44431;DHT22;30135;47.866;-4.222;2023-10-31T14:17:52;15.70;99.90
44431;DHT22;30135;47.866;-4.222;2023-10-31T14:20:18;15.70;99.90
44431;DHT22;30135;47.866;-4.222;2023-10-31T14:22:50;15.80;99.90
44431;DHT22;30135;47.866;-4.222;2023-10-31T14:25:16;15.80;99.90
44431;DHT22;30135;47.866;-4.222;2023-10-31T14:27:43;15.80;99.90
44431;DHT22;30135;47.866;-4.222;2023-10-31T14:30:13;15.80;99.90
44431;DHT22;30135;47.866;-4.222;2023-10-31T14:32:39;15.90;99.90
44431;DHT22;30135;47.866;-4.222;2023-10-31T14:35:06;15.90;99.90
44431;DHT22;30135;47.866;-4.222;2023-10-31T14:37:32;15.90;99.90
44431;DHT22;30135;47.866;-4.222;2023-10-31T14:39:59;15.90;99.90
44431;DHT22;30135;47.866;-4.222;2023-10-31T14:42:25;15.90;99.90
44431;DHT22;30135;47.866;-4.222;2023-10-31T14:44:51;15.90;99.90
44431;DHT22;30135;47.866;-4.222;2023-10-31T14:47:17;16.00;99.90
44431;DHT22;30135;47.866;-4.222;2023-10-31T14:49:44;16.00;99.90
44431;DHT22;30135;47.866;-4.222;2023-10-31T14:52:10;16.00;99.90
44431;DHT22;30135;47.866;-4.222;2023-10-31T14:54:36;16.00;99.90
44431;DHT22;30135;47.866;-4.222;2023-10-31T14:57:02;16.00;99.90
44431;DHT22;30135;47.866;-4.222;2023-10-31T14:59:29;16.00;99.90
44431;DHT22;30135;47.866;-4.222;2023-10-31T15:01:55;16.00;99.90
44431;DHT22;30135;47.866;-4.222;2023-10-31T15:04:21;16.00;99.90
44431;DHT22;30135;47.866;-4.222;2023-10-31T15:06:47;16.00;99.90
44431;DHT22;30135;47.866;-4.222;2023-10-31T15:09:13;16.00;99.90
44431;DHT22;30135;47.866;-4.222;2023-10-31T15:11:39;16.00;99.90
44431;DHT22;30135;47.866;-4.222;2023-10-31T15:14:06;16.10;99.90
44431;DHT22;30135;47.866;-4.222;2023-10-31T15:16:32;16.10;99.90
44431;DHT22;30135;47.866;-4.222;2023-10-31T15:18:58;16.10;99.90
44431;DHT22;30135;47.866;-4.222;2023-10-31T15:21:25;16.10;99.90
44431;DHT22;30135;47.866;-4.222;2023-10-31T15:23:51;16.10;99.90
44431;DHT22;30135;47.866;-4.222;2023-10-31T15:26:17;16.10;99.90